sensor_id;sensor_type;location;lat;lon;timestamp;pressure;altitude;pressure_sealevel;temperature;humidity
35694;BME280;21812;55.536;37.664;2023-08-31T00:00:42;99732.34;;;17.73;65.32
35694;BME280;21812;55.536;37.664;2023-08-31T00:03:08;99722.97;;;17.64;65.78
35694;BME280;21812;55.536;37.664;2023-08-31T00:05:41;99726.63;;;17.46;64.67
35694;BME280;21812;55.536;37.664;2023-08-31T00:08:07;99725.56;;;17.24;64.83
35694;BME280;21812;55.536;37.664;2023-08-31T00:10:34;99725.69;;;17.29;66.33
35694;BME280;21812;55.536;37.664;2023-08-31T00:13:01;99716.16;;;17.14;65.88
35694;BME280;21812;55.536;37.664;2023-08-31T00:15:27;99727.31;;;17.06;66.32
35694;BME280;21812;55.536;37.664;2023-08-31T00:17:54;99725.44;;;17.18;69.30
35694;BME280;21812;55.536;37.664;2023-08-31T00:20:20;99726.59;;;17.23;67.96
35694;BME280;21812;55.536;37.664;2023-08-31T00:22:47;99727.53;;;17.40;68.56
35694;BME280;21812;55.536;37.664;2023-08-31T00:25:14;99725.09;;;17.50;66.89
35694;BME280;21812;55.536;37.664;2023-08-31T00:27:40;99722.75;;;17.54;66.24
35694;BME280;21812;55.536;37.664;2023-08-31T00:30:07;99729.88;;;17.72;68.65
35694;BME280;21812;55.536;37.664;2023-08-31T00:32:37;99723.09;;;17.57;67.34
35694;BME280;21812;55.536;37.664;2023-08-31T00:35:05;99729.19;;;17.65;68.75
35694;BME280;21812;55.536;37.664;2023-08-31T00:37:31;99727.44;;;17.82;70.72
35694;BME280;21812;55.536;37.664;2023-08-31T00:39:57;99729.44;;;17.75;66.93
35694;BME280;21812;55.536;37.664;2023-08-31T00:42:23;99726.00;;;17.79;69.19
35694;BME280;21812;55.536;37.664;2023-08-31T00:44:50;99724.84;;;17.75;67.71
35694;BME280;21812;55.536;37.664;2023-08-31T00:47:16;99724.03;;;17.75;68.11
35694;BME280;21812;55.536;37.664;2023-08-31T00:49:43;99724.97;;;17.69;68.13
35694;BME280;21812;55.536;37.664;2023-08-31T00:52:09;99714.75;;;17.71;67.74
35694;BME280;21812;55.536;37.664;2023-08-31T00:54:35;99723.53;;;17.78;68.39
35694;BME280;21812;55.536;37.664;2023-08-31T00:57:02;99724.97;;;17.69;67.58
35694;BME280;21812;55.536;37.664;2023-08-31T00:59:29;99708.78;;;17.45;66.48
35694;BME280;21812;55.536;37.664;2023-08-31T01:02:11;99727.56;;;17.64;68.21
35694;BME280;21812;55.536;37.664;2023-08-31T01:04:52;99694.59;;;17.50;68.97
35694;BME280;21812;55.536;37.664;2023-08-31T01:07:39;99730.81;;;17.77;70.12
35694;BME280;21812;55.536;37.664;2023-08-31T01:10:32;99714.38;;;17.79;68.15
35694;BME280;21812;55.536;37.664;2023-08-31T01:13:09;99696.19;;;17.63;67.44
35694;BME280;21812;55.536;37.664;2023-08-31T01:15:37;99682.59;;;17.57;68.71
35694;BME280;21812;55.536;37.664;2023-08-31T01:18:09;99691.97;;;17.55;68.07
35694;BME280;21812;55.536;37.664;2023-08-31T01:26:10;99732.59;;;17.72;68.53
35694;BME280;21812;55.536;37.664;2023-08-31T01:28:36;99726.34;;;17.83;69.17
35694;BME280;21812;55.536;37.664;2023-08-31T01:31:04;99724.72;;;17.82;67.73
35694;BME280;21812;55.536;37.664;2023-08-31T01:33:31;99726.16;;;17.73;66.75
35694;BME280;21812;55.536;37.664;2023-08-31T01:35:58;99707.00;;;17.63;68.73
35694;BME280;21812;55.536;37.664;2023-08-31T01:38:27;99698.22;;;17.55;67.60
35694;BME280;21812;55.536;37.664;2023-08-31T01:40:59;99721.66;;;17.67;66.86
35694;BME280;21812;55.536;37.664;2023-08-31T01:43:27;99719.09;;;17.72;67.82
35694;BME280;21812;55.536;37.664;2023-08-31T01:45:54;99719.31;;;17.82;68.32
35694;BME280;21812;55.536;37.664;2023-08-31T01:48:20;99716.72;;;17.75;68.37
35694;BME280;21812;55.536;37.664;2023-08-31T01:50:46;99717.22;;;17.84;68.42
35694;BME280;21812;55.536;37.664;2023-08-31T01:53:12;99718.84;;;17.85;68.21
35694;BME280;21812;55.536;37.664;2023-08-31T01:55:38;99714.03;;;17.87;68.51
35694;BME280;21812;55.536;37.664;2023-08-31T01:58:04;99712.66;;;17.85;67.77
35694;BME280;21812;55.536;37.664;2023-08-31T02:00:30;99714.72;;;17.83;67.26
35694;BME280;21812;55.536;37.664;2023-08-31T02:03:00;99689.06;;;17.56;66.67
35694;BME280;21812;55.536;37.664;2023-08-31T02:05:26;99717.47;;;17.71;67.85
35694;BME280;21812;55.536;37.664;2023-08-31T02:07:52;99720.63;;;17.68;68.09
35694;BME280;21812;55.536;37.664;2023-08-31T02:10:18;99721.44;;;17.68;67.97
35694;BME280;21812;55.536;37.664;2023-08-31T02:13:03;99715.34;;;17.73;67.93
35694;BME280;21812;55.536;37.664;2023-08-31T02:15:29;99717.81;;;17.74;68.20
35694;BME280;21812;55.536;37.664;2023-08-31T02:17:59;99697.72;;;17.82;69.85
35694;BME280;21812;55.536;37.664;2023-08-31T02:20:25;99707.94;;;17.68;67.17
35694;BME280;21812;55.536;37.664;2023-08-31T02:22:52;99708.66;;;17.64;67.05
35694;BME280;21812;55.536;37.664;2023-08-31T02:25:18;99715.47;;;17.54;67.16
35694;BME280;21812;55.536;37.664;2023-08-31T02:27:46;99711.38;;;17.52;67.96
35694;BME280;21812;55.536;37.664;2023-08-31T02:30:12;99715.09;;;17.63;68.57
35694;BME280;21812;55.536;37.664;2023-08-31T02:32:38;99712.41;;;17.63;68.42
35694;BME280;21812;55.536;37.664;2023-08-31T02:35:04;99714.19;;;17.69;69.01
35694;BME280;21812;55.536;37.664;2023-08-31T02:37:30;99716.63;;;17.70;69.88
35694;BME280;21812;55.536;37.664;2023-08-31T02:39:56;99709.47;;;17.64;68.22
35694;BME280;21812;55.536;37.664;2023-08-31T02:42:22;99701.94;;;17.78;70.49
35694;BME280;21812;55.536;37.664;2023-08-31T02:44:52;99697.97;;;17.57;68.73
35694;BME280;21812;55.536;37.664;2023-08-31T02:47:19;99713.94;;;17.58;68.67
35694;BME280;21812;55.536;37.664;2023-08-31T02:49:45;99715.94;;;17.51;67.40
35694;BME280;21812;55.536;37.664;2023-08-31T02:52:13;99720.03;;;17.66;69.73
35694;BME280;21812;55.536;37.664;2023-08-31T02:54:39;99718.75;;;17.80;69.59
35694;BME280;21812;55.536;37.664;2023-08-31T02:57:05;99711.47;;;17.69;68.60
35694;BME280;21812;55.536;37.664;2023-08-31T02:59:31;99705.47;;;17.67;67.81
35694;BME280;21812;55.536;37.664;2023-08-31T03:02:04;99723.53;;;17.78;69.05
35694;BME280;21812;55.536;37.664;2023-08-31T03:04:30;99713.34;;;17.56;66.61
35694;BME280;21812;55.536;37.664;2023-08-31T03:06:56;99713.22;;;17.51;68.20
35694;BME280;21812;55.536;37.664;2023-08-31T03:09:22;99716.06;;;17.56;68.73
35694;BME280;21812;55.536;37.664;2023-08-31T03:11:48;99714.06;;;17.64;68.15
35694;BME280;21812;55.536;37.664;2023-08-31T03:14:14;99716.25;;;17.67;68.13
35694;BME280;21812;55.536;37.664;2023-08-31T03:16:40;99714.38;;;17.79;69.19
35694;BME280;21812;55.536;37.664;2023-08-31T03:19:06;99713.34;;;17.80;68.71
35694;BME280;21812;55.536;37.664;2023-08-31T03:21:32;99713.81;;;17.77;67.86
35694;BME280;21812;55.536;37.664;2023-08-31T03:23:59;99714.38;;;17.79;68.23
35694;BME280;21812;55.536;37.664;2023-08-31T03:26:25;99709.34;;;17.71;68.83
35694;BME280;21812;55.536;37.664;2023-08-31T03:28:51;99706.16;;;17.86;69.81
35694;BME280;21812;55.536;37.664;2023-08-31T03:31:17;99710.41;;;17.93;73.31
35694;BME280;21812;55.536;37.664;2023-08-31T03:33:43;99714.91;;;18.16;75.74
35694;BME280;21812;55.536;37.664;2023-08-31T03:36:08;99713.44;;;18.26;76.29
35694;BME280;21812;55.536;37.664;2023-08-31T03:38:34;99713.78;;;18.29;75.91
35694;BME280;21812;55.536;37.664;2023-08-31T03:41:03;99716.41;;;18.24;73.52
35694;BME280;21812;55.536;37.664;2023-08-31T03:43:29;99721.53;;;18.09;69.38
35694;BME280;21812;55.536;37.664;2023-08-31T03:45:56;99711.03;;;18.12;71.40
35694;BME280;21812;55.536;37.664;2023-08-31T03:48:23;99717.00;;;18.26;75.20
35694;BME280;21812;55.536;37.664;2023-08-31T03:50:51;99725.97;;;18.44;74.71
35694;BME280;21812;55.536;37.664;2023-08-31T03:53:16;99716.13;;;18.38;72.91
35694;BME280;21812;55.536;37.664;2023-08-31T03:55:42;99713.50;;;18.43;69.81
35694;BME280;21812;55.536;37.664;2023-08-31T03:58:08;99709.13;;;18.53;73.72
35694;BME280;21812;55.536;37.664;2023-08-31T04:00:34;99713.22;;;18.56;71.85
35694;BME280;21812;55.536;37.664;2023-08-31T04:03:04;99711.06;;;18.58;73.48
35694;BME280;21812;55.536;37.664;2023-08-31T04:05:33;99716.53;;;18.75;74.17
35694;BME280;21812;55.536;37.664;2023-08-31T04:08:00;99715.53;;;18.64;71.33
35694;BME280;21812;55.536;37.664;2023-08-31T04:10:26;99718.47;;;18.63;70.87
35694;BME280;21812;55.536;37.664;2023-08-31T04:12:52;99713.72;;;18.82;72.56
35694;BME280;21812;55.536;37.664;2023-08-31T04:15:19;99719.63;;;18.67;69.48
35694;BME280;21812;55.536;37.664;2023-08-31T04:17:45;99733.03;;;18.90;75.22
35694;BME280;21812;55.536;37.664;2023-08-31T04:20:11;99730.97;;;18.81;71.53
35694;BME280;21812;55.536;37.664;2023-08-31T04:22:37;99728.94;;;18.88;75.79
35694;BME280;21812;55.536;37.664;2023-08-31T04:25:03;99734.69;;;18.91;77.87
35694;BME280;21812;55.536;37.664;2023-08-31T04:27:29;99734.94;;;19.07;77.36
35694;BME280;21812;55.536;37.664;2023-08-31T04:30:00;99736.44;;;19.14;77.41
35694;BME280;21812;55.536;37.664;2023-08-31T04:32:26;99742.00;;;19.08;74.29
35694;BME280;21812;55.536;37.664;2023-08-31T04:34:52;99743.50;;;19.32;78.10
35694;BME280;21812;55.536;37.664;2023-08-31T04:37:18;99732.25;;;19.24;73.29
35694;BME280;21812;55.536;37.664;2023-08-31T04:39:45;99740.13;;;19.42;77.48
35694;BME280;21812;55.536;37.664;2023-08-31T04:42:10;99735.94;;;19.34;73.16
35694;BME280;21812;55.536;37.664;2023-08-31T04:44:36;99729.88;;;19.27;76.01
35694;BME280;21812;55.536;37.664;2023-08-31T04:47:01;99729.34;;;19.30;76.11
35694;BME280;21812;55.536;37.664;2023-08-31T04:49:27;99731.00;;;19.31;75.57
35694;BME280;21812;55.536;37.664;2023-08-31T04:51:53;99717.66;;;19.25;74.82
35694;BME280;21812;55.536;37.664;2023-08-31T04:54:18;99717.00;;;19.18;75.01
35694;BME280;21812;55.536;37.664;2023-08-31T04:56:44;99722.00;;;19.26;73.71
35694;BME280;21812;55.536;37.664;2023-08-31T04:59:10;99733.47;;;19.33;72.85
35694;BME280;21812;55.536;37.664;2023-08-31T05:01:35;99733.13;;;19.46;73.84
35694;BME280;21812;55.536;37.664;2023-08-31T05:04:02;99726.91;;;19.46;72.75
35694;BME280;21812;55.536;37.664;2023-08-31T05:06:28;99732.31;;;19.46;70.03
35694;BME280;21812;55.536;37.664;2023-08-31T05:08:54;99735.75;;;19.41;67.81
35694;BME280;21812;55.536;37.664;2023-08-31T05:11:19;99729.53;;;19.41;71.65
35694;BME280;21812;55.536;37.664;2023-08-31T05:13:46;99736.09;;;19.45;72.95
35694;BME280;21812;55.536;37.664;2023-08-31T05:16:12;99742.88;;;19.47;73.14
35694;BME280;21812;55.536;37.664;2023-08-31T05:18:38;99742.56;;;19.44;69.18
35694;BME280;21812;55.536;37.664;2023-08-31T05:21:05;99740.13;;;19.42;70.54
35694;BME280;21812;55.536;37.664;2023-08-31T05:23:31;99723.91;;;19.47;69.40
35694;BME280;21812;55.536;37.664;2023-08-31T05:25:57;99731.81;;;19.49;70.52
35694;BME280;21812;55.536;37.664;2023-08-31T05:28:23;99732.25;;;19.63;71.91
35694;BME280;21812;55.536;37.664;2023-08-31T05:30:55;99745.00;;;19.62;68.36
35694;BME280;21812;55.536;37.664;2023-08-31T05:33:20;99733.91;;;19.64;71.12
35694;BME280;21812;55.536;37.664;2023-08-31T05:35:47;99738.34;;;19.70;70.91
35694;BME280;21812;55.536;37.664;2023-08-31T05:38:13;99726.28;;;19.78;70.92
35694;BME280;21812;55.536;37.664;2023-08-31T05:40:39;99723.88;;;19.81;70.91
35694;BME280;21812;55.536;37.664;2023-08-31T05:43:05;99734.06;;;19.74;69.82
35694;BME280;21812;55.536;37.664;2023-08-31T05:45:34;99736.31;;;19.77;71.23
35694;BME280;21812;55.536;37.664;2023-08-31T05:47:59;99736.22;;;19.72;69.32
35694;BME280;21812;55.536;37.664;2023-08-31T05:50:26;99747.22;;;19.82;69.29
35694;BME280;21812;55.536;37.664;2023-08-31T05:52:52;99747.69;;;19.79;69.99
35694;BME280;21812;55.536;37.664;2023-08-31T05:55:18;99753.44;;;19.83;70.41
35694;BME280;21812;55.536;37.664;2023-08-31T05:57:44;99745.97;;;19.90;69.57
35694;BME280;21812;55.536;37.664;2023-08-31T06:00:10;99759.25;;;19.91;68.63
35694;BME280;21812;55.536;37.664;2023-08-31T06:02:38;99770.31;;;20.07;69.79
35694;BME280;21812;55.536;37.664;2023-08-31T06:05:04;99765.63;;;20.02;66.15
35694;BME280;21812;55.536;37.664;2023-08-31T06:07:31;99772.31;;;20.17;68.91
35694;BME280;21812;55.536;37.664;2023-08-31T06:09:57;99775.28;;;20.15;68.88
35694;BME280;21812;55.536;37.664;2023-08-31T06:12:22;99771.56;;;20.21;68.91
35694;BME280;21812;55.536;37.664;2023-08-31T06:14:48;99776.78;;;20.28;68.94
35694;BME280;21812;55.536;37.664;2023-08-31T06:17:14;99780.88;;;20.30;67.13
35694;BME280;21812;55.536;37.664;2023-08-31T06:19:40;99790.78;;;20.42;66.61
35694;BME280;21812;55.536;37.664;2023-08-31T06:22:07;99782.44;;;20.48;67.11
35694;BME280;21812;55.536;37.664;2023-08-31T06:24:32;99789.16;;;20.63;66.82
35694;BME280;21812;55.536;37.664;2023-08-31T06:26:59;99786.81;;;20.72;66.85
35694;BME280;21812;55.536;37.664;2023-08-31T06:29:25;99786.59;;;20.78;66.74
35694;BME280;21812;55.536;37.664;2023-08-31T06:31:51;99774.88;;;20.73;65.79
35694;BME280;21812;55.536;37.664;2023-08-31T06:34:16;99783.00;;;20.73;66.00
35694;BME280;21812;55.536;37.664;2023-08-31T06:36:42;99777.69;;;20.83;68.06
35694;BME280;21812;55.536;37.664;2023-08-31T06:39:08;99773.28;;;20.77;65.95
35694;BME280;21812;55.536;37.664;2023-08-31T06:41:34;99784.25;;;20.87;70.34
35694;BME280;21812;55.536;37.664;2023-08-31T06:43:59;99779.72;;;20.98;70.87
35694;BME280;21812;55.536;37.664;2023-08-31T06:46:25;99777.38;;;21.06;71.07
35694;BME280;21812;55.536;37.664;2023-08-31T06:48:51;99776.59;;;21.11;70.40
35694;BME280;21812;55.536;37.664;2023-08-31T06:51:16;99773.84;;;20.79;66.02
35694;BME280;21812;55.536;37.664;2023-08-31T06:53:43;99777.16;;;20.59;66.72
35694;BME280;21812;55.536;37.664;2023-08-31T06:56:09;99781.88;;;20.46;66.39
35694;BME280;21812;55.536;37.664;2023-08-31T06:58:35;99784.72;;;20.35;67.14
35694;BME280;21812;55.536;37.664;2023-08-31T07:01:00;99768.59;;;20.23;67.22
35694;BME280;21812;55.536;37.664;2023-08-31T07:03:26;99778.47;;;20.12;67.67
35694;BME280;21812;55.536;37.664;2023-08-31T07:05:52;99777.22;;;19.98;67.49
35694;BME280;21812;55.536;37.664;2023-08-31T07:08:17;99775.00;;;19.95;68.17
35694;BME280;21812;55.536;37.664;2023-08-31T07:10:43;99755.38;;;19.87;67.56
35694;BME280;21812;55.536;37.664;2023-08-31T07:13:09;99760.31;;;19.90;67.23
35694;BME280;21812;55.536;37.664;2023-08-31T07:15:34;99756.84;;;19.95;68.45
35694;BME280;21812;55.536;37.664;2023-08-31T07:18:00;99770.66;;;19.94;67.50
35694;BME280;21812;55.536;37.664;2023-08-31T07:20:25;99770.66;;;19.94;68.04
35694;BME280;21812;55.536;37.664;2023-08-31T07:22:51;99771.16;;;19.90;67.51
35694;BME280;21812;55.536;37.664;2023-08-31T07:25:17;99764.59;;;19.86;66.96
35694;BME280;21812;55.536;37.664;2023-08-31T07:27:42;99771.16;;;19.90;67.78
35694;BME280;21812;55.536;37.664;2023-08-31T07:30:08;99782.31;;;19.94;67.31
35694;BME280;21812;55.536;37.664;2023-08-31T07:32:35;99782.13;;;20.01;67.90
35694;BME280;21812;55.536;37.664;2023-08-31T07:35:01;99792.78;;;20.07;66.05
35694;BME280;21812;55.536;37.664;2023-08-31T07:37:30;99787.69;;;20.11;66.87
35694;BME280;21812;55.536;37.664;2023-08-31T07:39:55;99785.03;;;20.16;66.93
35694;BME280;21812;55.536;37.664;2023-08-31T07:42:21;99768.53;;;20.18;66.95
35694;BME280;21812;55.536;37.664;2023-08-31T07:44:46;99778.72;;;20.33;67.42
35694;BME280;21812;55.536;37.664;2023-08-31T07:47:12;99778.09;;;20.25;65.28
35694;BME280;21812;55.536;37.664;2023-08-31T07:49:38;99788.38;;;20.23;65.20
35694;BME280;21812;55.536;37.664;2023-08-31T07:52:03;99780.78;;;20.20;65.66
35694;BME280;21812;55.536;37.664;2023-08-31T07:54:30;99773.44;;;20.21;66.07
35694;BME280;21812;55.536;37.664;2023-08-31T07:56:56;99779.81;;;20.31;66.56
35694;BME280;21812;55.536;37.664;2023-08-31T07:59:21;99771.78;;;20.42;66.49
35694;BME280;21812;55.536;37.664;2023-08-31T08:01:47;99768.63;;;20.50;66.42
35694;BME280;21812;55.536;37.664;2023-08-31T08:04:13;99768.13;;;20.53;66.20
35694;BME280;21812;55.536;37.664;2023-08-31T08:06:39;99765.47;;;20.58;66.22
35694;BME280;21812;55.536;37.664;2023-08-31T08:09:04;99770.47;;;20.66;66.21
35694;BME280;21812;55.536;37.664;2023-08-31T08:11:31;99772.16;;;20.73;65.65
35694;BME280;21812;55.536;37.664;2023-08-31T08:13:56;99765.69;;;20.79;65.27
35694;BME280;21812;55.536;37.664;2023-08-31T08:16:22;99758.72;;;20.83;65.26
35694;BME280;21812;55.536;37.664;2023-08-31T08:18:48;99761.94;;;20.80;64.64
35694;BME280;21812;55.536;37.664;2023-08-31T08:21:13;99752.44;;;20.82;65.89
35694;BME280;21812;55.536;37.664;2023-08-31T08:23:39;99752.69;;;20.81;65.02
35694;BME280;21812;55.536;37.664;2023-08-31T08:26:04;99744.66;;;20.91;65.45
35694;BME280;21812;55.536;37.664;2023-08-31T08:28:30;99747.75;;;21.05;65.45
35694;BME280;21812;55.536;37.664;2023-08-31T08:30:56;99744.84;;;21.12;64.67
35694;BME280;21812;55.536;37.664;2023-08-31T08:33:21;99721.97;;;21.02;64.11
35694;BME280;21812;55.536;37.664;2023-08-31T08:35:47;99747.94;;;21.25;64.68
35694;BME280;21812;55.536;37.664;2023-08-31T08:38:12;99744.41;;;21.30;63.60
35694;BME280;21812;55.536;37.664;2023-08-31T08:40:38;99747.19;;;21.35;63.04
35694;BME280;21812;55.536;37.664;2023-08-31T08:43:06;99725.66;;;21.23;62.54
35694;BME280;21812;55.536;37.664;2023-08-31T08:45:37;99746.13;;;21.41;60.94
35694;BME280;21812;55.536;37.664;2023-08-31T08:48:05;99705.00;;;21.22;61.55
35694;BME280;21812;55.536;37.664;2023-08-31T08:50:32;99732.06;;;21.44;59.79
35694;BME280;21812;55.536;37.664;2023-08-31T08:53:00;99729.66;;;21.48;60.11
35694;BME280;21812;55.536;37.664;2023-08-31T08:55:27;99757.69;;;21.59;60.00
35694;BME280;21812;55.536;37.664;2023-08-31T08:57:53;99745.50;;;21.61;59.38
35694;BME280;21812;55.536;37.664;2023-08-31T09:00:19;99764.31;;;21.73;58.59
35694;BME280;21812;55.536;37.664;2023-08-31T09:02:45;99750.75;;;21.78;58.54
35694;BME280;21812;55.536;37.664;2023-08-31T09:05:11;99752.16;;;21.86;57.89
35694;BME280;21812;55.536;37.664;2023-08-31T09:07:38;99752.97;;;21.86;57.49
35694;BME280;21812;55.536;37.664;2023-08-31T09:10:04;99761.44;;;21.95;57.68
35694;BME280;21812;55.536;37.664;2023-08-31T09:12:31;99763.41;;;22.10;57.83
35694;BME280;21812;55.536;37.664;2023-08-31T09:15:00;99762.63;;;22.20;58.11
35694;BME280;21812;55.536;37.664;2023-08-31T09:17:40;99762.19;;;22.33;58.11
35694;BME280;21812;55.536;37.664;2023-08-31T09:20:07;99757.84;;;22.37;57.87
35694;BME280;21812;55.536;37.664;2023-08-31T09:22:34;99749.69;;;22.48;57.79
35694;BME280;21812;55.536;37.664;2023-08-31T09:25:00;99761.16;;;22.65;58.35
35694;BME280;21812;55.536;37.664;2023-08-31T09:27:26;99748.94;;;22.73;59.57
35694;BME280;21812;55.536;37.664;2023-08-31T09:29:55;99747.84;;;22.84;57.92
35694;BME280;21812;55.536;37.664;2023-08-31T09:32:21;99735.06;;;22.90;57.56
35694;BME280;21812;55.536;37.664;2023-08-31T09:34:47;99747.38;;;23.08;57.90
35694;BME280;21812;55.536;37.664;2023-08-31T09:37:15;99755.53;;;23.18;56.74
35694;BME280;21812;55.536;37.664;2023-08-31T09:39:42;99744.34;;;23.25;56.68
35694;BME280;21812;55.536;37.664;2023-08-31T09:42:08;99724.50;;;23.19;57.03
35694;BME280;21812;55.536;37.664;2023-08-31T09:44:40;99743.25;;;23.41;56.60
35694;BME280;21812;55.536;37.664;2023-08-31T09:47:07;99745.41;;;23.54;56.31
35694;BME280;21812;55.536;37.664;2023-08-31T09:49:33;99740.22;;;23.63;55.39
35694;BME280;21812;55.536;37.664;2023-08-31T09:52:03;99741.00;;;23.74;57.14
35694;BME280;21812;55.536;37.664;2023-08-31T09:54:29;99756.81;;;23.77;54.12
35694;BME280;21812;55.536;37.664;2023-08-31T09:56:56;99758.72;;;23.92;56.26
35694;BME280;21812;55.536;37.664;2023-08-31T09:59:24;99751.28;;;24.08;55.93
35694;BME280;21812;55.536;37.664;2023-08-31T10:01:49;99748.22;;;24.19;54.92
35694;BME280;21812;55.536;37.664;2023-08-31T10:04:16;99758.78;;;24.36;55.49
35694;BME280;21812;55.536;37.664;2023-08-31T10:06:42;99748.88;;;24.56;53.97
35694;BME280;21812;55.536;37.664;2023-08-31T10:09:08;99752.25;;;24.87;53.30
35694;BME280;21812;55.536;37.664;2023-08-31T10:11:40;99756.03;;;25.31;53.12
35694;BME280;21812;55.536;37.664;2023-08-31T10:14:09;99734.84;;;25.42;49.24
35694;BME280;21812;55.536;37.664;2023-08-31T10:16:39;99723.47;;;25.59;48.64
35694;BME280;21812;55.536;37.664;2023-08-31T10:19:04;99737.06;;;25.93;49.47
35694;BME280;21812;55.536;37.664;2023-08-31T10:21:30;99738.63;;;26.23;51.46
35694;BME280;21812;55.536;37.664;2023-08-31T10:23:57;99741.97;;;26.39;49.14
35694;BME280;21812;55.536;37.664;2023-08-31T10:26:31;99734.22;;;26.65;50.13
35694;BME280;21812;55.536;37.664;2023-08-31T10:28:58;99733.09;;;26.85;48.80
35694;BME280;21812;55.536;37.664;2023-08-31T10:31:28;99729.03;;;27.02;48.03
35694;BME280;21812;55.536;37.664;2023-08-31T10:34:05;99743.63;;;27.30;46.79
35694;BME280;21812;55.536;37.664;2023-08-31T10:36:41;99717.38;;;27.10;46.50
35694;BME280;21812;55.536;37.664;2023-08-31T10:39:14;99741.44;;;27.46;46.75
35694;BME280;21812;55.536;37.664;2023-08-31T10:41:57;99738.19;;;27.72;45.59
35694;BME280;21812;55.536;37.664;2023-08-31T10:44:27;99731.31;;;28.16;44.98
35694;BME280;21812;55.536;37.664;2023-08-31T10:46:59;99718.47;;;28.25;45.18
35694;BME280;21812;55.536;37.664;2023-08-31T10:49:25;99723.84;;;28.58;45.33
35694;BME280;21812;55.536;37.664;2023-08-31T10:51:56;99730.31;;;29.07;45.34
35694;BME280;21812;55.536;37.664;2023-08-31T10:54:31;99732.09;;;29.26;42.75
35694;BME280;21812;55.536;37.664;2023-08-31T10:57:02;99728.25;;;29.67;41.52
35694;BME280;21812;55.536;37.664;2023-08-31T10:59:52;99727.75;;;30.05;42.01
35694;BME280;21812;55.536;37.664;2023-08-31T11:02:38;99723.75;;;30.28;41.62
35694;BME280;21812;55.536;37.664;2023-08-31T11:05:11;99699.81;;;30.37;40.47
35694;BME280;21812;55.536;37.664;2023-08-31T11:07:39;99724.13;;;30.70;39.20
35694;BME280;21812;55.536;37.664;2023-08-31T11:12:32;99713.50;;;31.33;39.14
35694;BME280;21812;55.536;37.664;2023-08-31T11:14:58;99718.16;;;31.50;37.93
35694;BME280;21812;55.536;37.664;2023-08-31T11:17:24;99716.81;;;31.65;37.50
35694;BME280;21812;55.536;37.664;2023-08-31T11:19:50;99717.75;;;32.08;37.55
35694;BME280;21812;55.536;37.664;2023-08-31T11:22:15;99709.63;;;32.32;36.17
35694;BME280;21812;55.536;37.664;2023-08-31T11:24:41;99711.78;;;32.69;36.02
35694;BME280;21812;55.536;37.664;2023-08-31T11:27:08;99710.50;;;33.21;35.08
35694;BME280;21812;55.536;37.664;2023-08-31T11:29:37;99710.63;;;33.24;34.25
35694;BME280;21812;55.536;37.664;2023-08-31T11:32:03;99706.66;;;33.59;34.54
35694;BME280;21812;55.536;37.664;2023-08-31T11:34:28;99696.03;;;33.73;33.70
35694;BME280;21812;55.536;37.664;2023-08-31T11:36:54;99699.03;;;34.17;34.13
35694;BME280;21812;55.536;37.664;2023-08-31T11:39:20;99692.56;;;34.25;32.17
35694;BME280;21812;55.536;37.664;2023-08-31T11:41:46;99688.09;;;34.49;32.83
35694;BME280;21812;55.536;37.664;2023-08-31T11:44:13;99656.25;;;34.43;32.11
35694;BME280;21812;55.536;37.664;2023-08-31T11:46:45;99687.13;;;34.70;31.19
35694;BME280;21812;55.536;37.664;2023-08-31T11:49:17;99690.75;;;35.30;31.42
35694;BME280;21812;55.536;37.664;2023-08-31T11:51:44;99681.31;;;35.51;31.72
35694;BME280;21812;55.536;37.664;2023-08-31T11:54:10;99682.53;;;36.01;30.78
35694;BME280;21812;55.536;37.664;2023-08-31T11:56:40;99677.56;;;36.10;30.97
35694;BME280;21812;55.536;37.664;2023-08-31T11:59:11;99670.75;;;36.43;29.39
35694;BME280;21812;55.536;37.664;2023-08-31T12:01:40;99671.81;;;36.38;29.23
35694;BME280;21812;55.536;37.664;2023-08-31T12:04:13;99662.31;;;35.85;28.34
35694;BME280;21812;55.536;37.664;2023-08-31T12:06:40;99668.75;;;35.89;29.30
35694;BME280;21812;55.536;37.664;2023-08-31T12:09:08;99670.00;;;36.27;29.07
35694;BME280;21812;55.536;37.664;2023-08-31T12:11:34;99665.78;;;36.72;28.93
35694;BME280;21812;55.536;37.664;2023-08-31T12:14:01;99658.44;;;36.83;28.62
35694;BME280;21812;55.536;37.664;2023-08-31T12:16:35;99669.13;;;36.81;27.84
35694;BME280;21812;55.536;37.664;2023-08-31T12:19:02;99666.44;;;37.08;28.37
35694;BME280;21812;55.536;37.664;2023-08-31T12:21:32;99660.75;;;37.01;27.69
35694;BME280;21812;55.536;37.664;2023-08-31T12:23:59;99669.72;;;36.90;28.98
35694;BME280;21812;55.536;37.664;2023-08-31T12:26:25;99653.78;;;36.68;28.29
35694;BME280;21812;55.536;37.664;2023-08-31T12:28:52;99660.50;;;36.86;28.39
35694;BME280;21812;55.536;37.664;2023-08-31T12:31:17;99663.28;;;36.86;28.21
35694;BME280;21812;55.536;37.664;2023-08-31T12:33:43;99655.56;;;37.22;28.59
35694;BME280;21812;55.536;37.664;2023-08-31T12:36:09;99651.41;;;37.59;27.54
35694;BME280;21812;55.536;37.664;2023-08-31T12:38:35;99649.16;;;37.68;27.33
35694;BME280;21812;55.536;37.664;2023-08-31T12:41:00;99648.34;;;37.94;27.07
35694;BME280;21812;55.536;37.664;2023-08-31T12:43:28;99645.56;;;37.94;26.85
35694;BME280;21812;55.536;37.664;2023-08-31T12:45:57;99646.75;;;37.93;27.36
35694;BME280;21812;55.536;37.664;2023-08-31T12:48:23;99632.34;;;37.87;26.74
35694;BME280;21812;55.536;37.664;2023-08-31T12:50:49;99635.63;;;38.23;26.25
35694;BME280;21812;55.536;37.664;2023-08-31T12:53:15;99647.56;;;38.54;26.03
35694;BME280;21812;55.536;37.664;2023-08-31T12:55:41;99636.31;;;38.17;25.96
35694;BME280;21812;55.536;37.664;2023-08-31T12:58:08;99638.59;;;37.81;26.16